createdAt,value
2023-05-02T05:23:51.333Z,97134.47
2023-05-02T05:25:54.194Z,97133.63
2023-05-02T05:27:57.005Z,97140.94
2023-05-02T05:30:00.434Z,97145.41
2023-05-02T05:32:03.632Z,97139.41
2023-05-02T05:34:06.724Z,97144.69
2023-05-02T05:36:10.989Z,97145.91
2023-05-02T05:38:13.793Z,97139.50
2023-05-02T05:40:17.939Z,97147.47
2023-05-02T05:42:20.923Z,97140.28
2023-05-02T05:44:25.416Z,97137.19
2023-05-02T05:46:28.291Z,97141.47
2023-05-02T05:48:31.443Z,97149.81
2023-05-02T05:50:34.263Z,97156.75
2023-05-02T05:52:37.432Z,97154.47
2023-05-02T05:54:41.751Z,97156.88
2023-05-02T05:56:49.127Z,97152.50
2023-05-02T05:58:51.824Z,97152.56
2023-05-02T06:00:54.954Z,97155.56
2023-05-02T06:02:57.820Z,97153.00
2023-05-02T06:05:00.852Z,97147.97
2023-05-02T06:07:03.742Z,97153.84
2023-05-02T06:09:07.162Z,97159.72
2023-05-02T06:11:11.658Z,97176.25
2023-05-02T06:13:16.500Z,97173.88
2023-05-02T06:15:19.630Z,97171.38
2023-05-02T06:17:22.627Z,97177.09
2023-05-02T06:19:25.590Z,97178.50
2023-05-02T06:21:29.746Z,97182.78
2023-05-02T06:23:33.376Z,97186.88
2023-05-02T06:25:38.895Z,97185.19
2023-05-02T06:27:41.746Z,97182.75
2023-05-02T06:29:47.123Z,97173.47
2023-05-02T06:31:51.019Z,97178.53
2023-05-02T06:33:53.897Z,97181.44
2023-05-02T06:35:58.522Z,97176.75
2023-05-02T06:38:02.122Z,97184.53
2023-05-02T06:40:05.637Z,97181.03
2023-05-02T06:42:09.725Z,97182.69
2023-05-02T06:44:12.811Z,97178.81
2023-05-02T06:46:17.407Z,97185.78
2023-05-02T06:48:21.490Z,97180.03
2023-05-02T06:50:24.328Z,97190.53
2023-05-02T06:52:27.414Z,97185.19
2023-05-02T06:54:30.384Z,97185.78
2023-05-02T06:56:33.662Z,97186.47
2023-05-02T06:58:36.716Z,97197.75
2023-05-02T07:00:39.834Z,97190.09
2023-05-02T07:02:44.283Z,97184.31
2023-05-02T07:04:47.335Z,97200.34
2023-05-02T07:06:50.818Z,97191.13
2023-05-02T07:08:53.988Z,97204.47
2023-05-02T07:10:56.769Z,97196.91
2023-05-02T07:12:59.614Z,97196.34
2023-05-02T07:15:02.512Z,97202.50
2023-05-02T07:17:05.895Z,97198.72
2023-05-02T07:19:10.171Z,97185.88
2023-05-02T07:21:13.364Z,97188.41
2023-05-02T07:23:16.297Z,97186.31
2023-05-02T07:25:19.226Z,97182.19
2023-05-02T07:27:24.175Z,97189.16
2023-05-02T07:29:27.121Z,97177.50
2023-05-02T07:31:30.123Z,97186.31
2023-05-02T07:33:32.960Z,97178.53
2023-05-02T07:35:37.355Z,97191.06
2023-05-02T07:37:40.267Z,97177.38
2023-05-02T07:39:43.410Z,97179.22
2023-05-02T07:41:46.422Z,97173.66
2023-05-02T07:43:49.446Z,97176.56
2023-05-02T07:45:52.410Z,97183.06
2023-05-02T07:47:55.463Z,97176.88
2023-05-02T07:49:58.530Z,97179.09
2023-05-02T07:52:03.283Z,97164.84
2023-05-02T07:54:16.498Z,97176.78
2023-05-02T07:56:19.591Z,97188.28
2023-05-02T07:58:24.060Z,97180.25
2023-05-02T08:00:27.151Z,97160.31
2023-05-02T08:02:37.422Z,97177.97
2023-05-02T08:04:41.535Z,97173.00
2023-05-02T08:06:46.143Z,97172.56
2023-05-02T08:08:50.582Z,97170.06
2023-05-02T08:10:53.542Z,97167.97
2023-05-02T08:12:56.948Z,97167.97
2023-05-02T08:14:59.750Z,97176.22
2023-05-02T08:17:06.988Z,97165.13
2023-05-02T08:19:10.055Z,97181.25
2023-05-02T08:21:13.267Z,97180.63
2023-05-02T08:23:16.635Z,97172.28
2023-05-02T08:25:21.281Z,97177.34
2023-05-02T08:27:24.108Z,97181.78
2023-05-02T08:29:28.454Z,97185.88
2023-05-02T08:31:31.462Z,97174.94
2023-05-02T08:33:34.371Z,97181.47
2023-05-02T08:35:37.434Z,97186.59
2023-05-02T08:37:42.744Z,97176.50
2023-05-02T08:39:46.046Z,97183.03
2023-05-02T08:41:52.883Z,97182.34
2023-05-02T08:43:57.623Z,97171.22
2023-05-02T08:46:02.557Z,97182.25
2023-05-02T08:48:08.605Z,97176.69
2023-05-02T08:50:12.325Z,97170.28
2023-05-02T08:52:16.905Z,97189.00
2023-05-02T08:54:22.576Z,97191.44
2023-05-02T08:56:27.409Z,97192.06
2023-05-02T08:58:33.871Z,97193.47
2023-05-02T09:00:40.210Z,97189.38
2023-05-02T09:03:01.349Z,97183.81
2023-05-02T09:05:08.607Z,97180.91
2023-05-02T09:07:11.762Z,97183.13
2023-05-02T09:09:17.743Z,97183.03
2023-05-02T09:11:22.419Z,97191.19
2023-05-02T09:13:37.765Z,97190.13
2023-05-02T09:15:40.662Z,97182.69
2023-05-02T09:17:44.802Z,97183.31
2023-05-02T09:19:47.950Z,97192.03
2023-05-02T09:21:51.256Z,97178.00
2023-05-02T09:23:56.858Z,97183.13
2023-05-02T09:26:00.193Z,97186.00
2023-05-02T09:28:03.450Z,97194.66
2023-05-02T09:30:31.675Z,97191.28
2023-05-02T09:32:47.892Z,97199.53
2023-05-02T09:35:06.176Z,97191.28
2023-05-02T09:37:11.259Z,97196.78
2023-05-02T09:39:15.589Z,97187.47
2023-05-02T09:41:20.942Z,97198.50
2023-05-02T09:43:24.289Z,97201.19
2023-05-02T09:45:28.836Z,97195.25
2023-05-02T09:47:33.234Z,97193.63
2023-05-02T09:49:44.745Z,97193.31
2023-05-02T09:51:48.552Z,97185.88
2023-05-02T09:53:52.546Z,97192.84
2023-05-02T09:56:01.848Z,97192.38
2023-05-02T09:58:05.885Z,97194.38
2023-05-02T10:00:10.395Z,97186.69
2023-05-02T10:02:13.791Z,97192.84
2023-05-02T10:04:20.711Z,97191.56
2023-05-02T10:06:24.188Z,97203.09
2023-05-02T10:08:28.918Z,97201.69
2023-05-02T10:10:37.113Z,97194.25
2023-05-02T10:12:41.299Z,97203.66
2023-05-02T10:14:50.048Z,97194.38
2023-05-02T10:17:01.457Z,97211.03
2023-05-02T10:19:08.982Z,97196.03
2023-05-02T10:21:16.017Z,97206.84
2023-05-02T10:23:21.494Z,97207.22
2023-05-02T10:25:26.977Z,97203.00
2023-05-02T10:27:32.025Z,97202.44
2023-05-02T10:29:36.175Z,97200.56
2023-05-02T10:31:41.812Z,97198.47
2023-05-02T10:33:47.889Z,97188.34
2023-05-02T10:35:51.630Z,97187.28
2023-05-02T10:37:56.393Z,97192.78
2023-05-02T10:40:00.413Z,97191.25
2023-05-02T10:42:08.630Z,97184.59
2023-05-02T10:44:12.205Z,97184.97
2023-05-02T10:46:35.065Z,97183.19
2023-05-02T10:48:38.804Z,97181.13
2023-05-02T10:50:47.445Z,97180.66
2023-05-02T10:52:50.264Z,97182.31
2023-05-02T10:55:15.096Z,97182.06
2023-05-02T10:57:18.027Z,97179.97
2023-05-02T10:59:31.651Z,97187.53
2023-05-02T11:01:37.997Z,97179.81
2023-05-02T11:03:57.533Z,97181.47
2023-05-02T11:06:07.802Z,97190.66
2023-05-02T11:08:32.583Z,97187.50
2023-05-02T11:10:36.897Z,97180.63
2023-05-02T11:12:47.492Z,97178.78
2023-05-02T11:14:50.831Z,97163.50
2023-05-02T11:17:07.505Z,97167.81
2023-05-02T11:19:10.810Z,97180.50
2023-05-02T11:21:30.045Z,97173.38
2023-05-02T11:23:37.007Z,97172.91
2023-05-02T11:25:43.908Z,97176.16
2023-05-02T11:27:49.281Z,97182.31
2023-05-02T11:29:55.448Z,97178.09
2023-05-02T11:31:58.461Z,97181.97
2023-05-02T11:34:02.574Z,97181.16
2023-05-02T11:36:05.886Z,97168.88
2023-05-02T11:38:12.261Z,97184.97
2023-05-02T11:40:16.295Z,97181.72
2023-05-02T11:42:30.917Z,97183.09
2023-05-02T11:44:33.700Z,97176.69
2023-05-02T11:46:39.452Z,97181.81
2023-05-02T11:48:42.967Z,97184.03
2023-05-02T11:50:50.144Z,97175.41
2023-05-02T11:52:53.358Z,97185.66
2023-05-02T11:54:56.869Z,97180.03
2023-05-02T11:57:02.605Z,97174.34
2023-05-02T11:59:08.497Z,97183.53
2023-05-02T12:01:15.872Z,97185.16
2023-05-02T12:03:32.424Z,97175.50
2023-05-02T12:05:35.552Z,97171.19
2023-05-02T12:07:39.461Z,97171.53
2023-05-02T12:09:52.548Z,97173.50
2023-05-02T12:11:55.588Z,97177.88
2023-05-02T12:13:58.943Z,97179.50
2023-05-02T12:16:04.456Z,97173.09
2023-05-02T12:18:08.412Z,97170.41
2023-05-02T12:20:13.079Z,97166.66
2023-05-02T12:22:16.839Z,97176.69
2023-05-02T12:24:19.763Z,97174.25
2023-05-02T12:26:25.363Z,97178.06
2023-05-02T12:28:28.900Z,97193.72
2023-05-02T12:30:33.129Z,97187.28
2023-05-02T12:32:38.616Z,97173.88
2023-05-02T12:34:42.540Z,97179.84
2023-05-02T12:36:46.103Z,97184.72
2023-05-02T12:38:53.432Z,97182.84
2023-05-02T12:40:58.423Z,97182.84
2023-05-02T12:43:06.308Z,97177.81
2023-05-02T12:45:18.226Z,97182.69
2023-05-02T12:47:22.709Z,97180.59
2023-05-02T12:49:27.057Z,97179.28
2023-05-02T12:51:31.753Z,97183.34
2023-05-02T12:53:42.037Z,97184.47
2023-05-02T12:55:45.956Z,97179.13
2023-05-02T12:57:49.528Z,97196.50
2023-05-02T12:59:54.298Z,97187.91
2023-05-02T13:01:57.259Z,97169.69
2023-05-02T13:04:00.383Z,97170.50
2023-05-02T13:06:05.299Z,97176.22
2023-05-02T13:08:08.331Z,97184.00
2023-05-02T13:10:12.237Z,97175.41
2023-05-02T13:12:15.220Z,97166.28
2023-05-02T13:14:18.165Z,97170.59
2023-05-02T13:16:21.359Z,97177.34
2023-05-02T13:18:24.335Z,97172.28
2023-05-02T13:20:27.619Z,97177.78
2023-05-02T13:22:33.036Z,97182.06
2023-05-02T13:24:36.195Z,97179.53
2023-05-02T13:26:39.341Z,97180.28
2023-05-02T13:28:42.354Z,97179.72
2023-05-02T13:30:45.494Z,97178.09
2023-05-02T13:32:48.828Z,97178.09
2023-05-02T13:34:51.727Z,97170.03
2023-05-02T13:36:54.582Z,97176.53
2023-05-02T13:38:58.861Z,97162.72
2023-05-02T13:41:01.628Z,97175.72
2023-05-02T13:43:04.742Z,97152.22
2023-05-02T13:45:08.506Z,97163.53
2023-05-02T13:47:11.768Z,97168.63
2023-05-02T13:49:14.777Z,97169.38
2023-05-02T13:51:17.760Z,97172.47
2023-05-02T13:53:20.649Z,97170.19
2023-05-02T13:55:25.066Z,97176.53
2023-05-02T13:57:28.023Z,97176.53
2023-05-02T13:59:31.001Z,97171.16
2023-05-02T14:01:34.133Z,97179.22
2023-05-02T14:03:37.259Z,97162.06
2023-05-02T14:05:43.536Z,97173.34
2023-05-02T14:07:47.261Z,97167.75
2023-05-02T14:09:50.285Z,97157.81
2023-05-02T14:11:55.645Z,97156.19
2023-05-02T14:13:59.890Z,97158.97
2023-05-02T14:16:02.950Z,97162.78
2023-05-02T14:18:06.243Z,97154.25
2023-05-02T14:20:10.515Z,97158.56
2023-05-02T14:22:13.536Z,97169.28
2023-05-02T14:24:18.334Z,97174.09
2023-05-02T14:26:21.256Z,97174.59
2023-05-02T14:28:27.020Z,97172.16
2023-05-02T14:30:31.294Z,97172.97
2023-05-02T14:32:34.361Z,97179.72
2023-05-02T14:34:37.343Z,97173.28
2023-05-02T14:36:40.904Z,97161.25
2023-05-02T14:38:43.903Z,97167.75
2023-05-02T14:40:46.887Z,97165.66
2023-05-02T14:42:49.651Z,97165.97
2023-05-02T14:44:53.769Z,97156.38
2023-05-02T14:46:57.391Z,97165.25
2023-05-02T14:49:00.503Z,97154.25
2023-05-02T14:51:05.080Z,97163.38
2023-05-02T14:53:08.288Z,97156.03
2023-05-02T14:55:12.036Z,97160.59
2023-05-02T14:57:15.675Z,97156.03
2023-05-02T14:59:21.218Z,97151.97
2023-05-02T15:01:25.703Z,97157.34
2023-05-02T15:03:28.828Z,97167.03
2023-05-02T15:05:32.014Z,97149.28
2023-05-02T15:07:35.019Z,97146.34
2023-05-02T15:09:38.089Z,97143.44
2023-05-02T15:11:41.155Z,97143.44
2023-05-02T15:13:44.093Z,97138.66
2023-05-02T15:15:48.024Z,97137.34
2023-05-02T15:17:53.181Z,97150.50
2023-05-02T15:19:58.542Z,97150.00
2023-05-02T15:22:01.804Z,97142.53
2023-05-02T15:24:05.807Z,97146.59
2023-05-02T15:26:08.764Z,97148.22
2023-05-02T15:28:11.646Z,97139.38
2023-05-02T15:30:16.636Z,97151.16
2023-05-02T15:32:21.658Z,97154.66
2023-05-02T15:34:25.945Z,97157.56
2023-05-02T15:36:30.077Z,97154.06
2023-05-02T15:38:34.012Z,97155.13
2023-05-02T15:40:36.798Z,97153.03
2023-05-02T15:42:40.138Z,97160.25
2023-05-02T15:44:42.990Z,97149.50
2023-05-02T15:46:47.124Z,97150.34
2023-05-02T15:48:50.625Z,97151.72
2023-05-02T15:50:54.995Z,97163.03
2023-05-02T15:52:57.697Z,97165.47
2023-05-02T15:55:01.665Z,97178.63
2023-05-02T15:57:04.633Z,97168.16
2023-05-02T15:59:07.454Z,97170.78
2023-05-02T16:01:10.711Z,97172.28
2023-05-02T16:03:14.105Z,97169.78
2023-05-02T16:05:17.127Z,97170.03
2023-05-02T16:07:21.541Z,97167.56
2023-05-02T16:09:24.592Z,97163.84
2023-05-02T16:11:27.315Z,97167.38
2023-05-02T16:13:30.343Z,97167.13
2023-05-02T16:15:33.306Z,97168.75
2023-05-02T16:17:36.139Z,97173.28
2023-05-02T16:19:39.049Z,97167.38
2023-05-02T16:21:42.827Z,97168.75
2023-05-02T16:23:46.975Z,97165.81
2023-05-02T16:25:49.907Z,97164.19
2023-05-02T16:27:52.947Z,97170.03
2023-05-02T16:29:56.441Z,97159.31
2023-05-02T16:31:59.742Z,97170.84
2023-05-02T16:34:05.005Z,97167.13
2023-05-02T16:36:08.299Z,97170.63
2023-05-02T16:38:13.944Z,97161.50
2023-05-02T16:40:18.614Z,97171.88
2023-05-02T16:42:21.349Z,97168.41
2023-05-02T16:44:24.507Z,97162.72
2023-05-02T16:46:27.440Z,97168.88
2023-05-02T16:48:30.582Z,97171.25
2023-05-02T16:50:33.390Z,97179.00
2023-05-02T16:52:38.130Z,97176.31
2023-05-02T16:54:40.982Z,97175.72
2023-05-02T16:56:45.128Z,97179.47
2023-05-02T16:58:48.043Z,97174.09
2023-05-02T17:00:50.851Z,97175.16
2023-05-02T17:02:56.913Z,97172.22
2023-05-02T17:05:00.195Z,97171.41
2023-05-02T17:07:03.044Z,97172.47
2023-05-02T17:09:06.292Z,97175.16
2023-05-02T17:11:09.061Z,97167.91
2023-05-02T17:13:13.176Z,97181.09
2023-05-02T17:15:16.226Z,97167.91
2023-05-02T17:17:22.607Z,97178.66
2023-05-02T17:19:25.922Z,97174.91
2023-05-02T17:21:29.015Z,97179.94
2023-05-02T17:23:31.928Z,97177.53
2023-05-02T17:25:34.671Z,97179.63
2023-05-02T17:27:40.159Z,97185.25
2023-05-02T17:29:45.144Z,97187.34
2023-05-02T17:31:48.263Z,97187.59
2023-05-02T17:33:51.045Z,97197.50
2023-05-02T17:35:54.264Z,97196.69
2023-05-02T17:37:57.081Z,97203.59
2023-05-02T17:40:01.305Z,97208.06
2023-05-02T17:42:04.216Z,97206.44
2023-05-02T17:44:07.087Z,97188.63
2023-05-02T17:46:13.672Z,97198.78
2023-05-02T17:48:16.559Z,97189.84
2023-05-02T17:50:19.627Z,97204.88
2023-05-02T17:52:22.600Z,97200.81
2023-05-02T17:54:25.689Z,97197.81
2023-05-02T17:56:28.430Z,97192.91
2023-05-02T17:58:31.341Z,97193.72
2023-05-02T18:00:35.568Z,97198.72
2023-05-02T18:02:39.876Z,97201.88
2023-05-02T18:04:44.032Z,97199.44
2023-05-02T18:06:48.184Z,97209.56
2023-05-02T18:08:51.456Z,97197.47
2023-05-02T18:10:54.601Z,97194.94
2023-05-02T18:12:57.530Z,97181.75
2023-05-02T18:15:01.974Z,97199.94
2023-05-02T18:17:07.009Z,97190.53
2023-05-02T18:19:12.564Z,97195.88
2023-05-02T18:21:21.871Z,97191.25
2023-05-02T18:23:25.188Z,97189.84
2023-05-02T18:25:28.005Z,97194.88
2023-05-02T18:27:30.726Z,97190.81
2023-05-02T18:29:36.468Z,97186.16
2023-05-02T18:31:40.324Z,97183.13
2023-05-02T18:33:43.381Z,97183.06
2023-05-02T18:35:48.390Z,97186.19
2023-05-02T18:37:51.601Z,97190.16
2023-05-02T18:39:56.247Z,97183.88
2023-05-02T18:41:59.240Z,97180.03
2023-05-02T18:44:05.121Z,97182.88
2023-05-02T18:46:09.487Z,97175.53
2023-05-02T18:48:12.450Z,97179.50
2023-05-02T18:50:15.528Z,97171.34
2023-05-02T18:52:19.635Z,97173.66
2023-05-02T18:54:23.454Z,97180.31
2023-05-02T18:56:26.613Z,97173.53
2023-05-02T18:58:29.508Z,97179.94
2023-05-02T19:00:37.075Z,97183.69
2023-05-02T19:02:40.133Z,97175.06
2023-05-02T19:04:43.005Z,97176.69
2023-05-02T19:06:46.160Z,97179.25
2023-05-02T19:08:50.658Z,97178.69
2023-05-02T19:10:53.481Z,97181.59
2023-05-02T19:12:56.593Z,97194.16
2023-05-02T19:14:59.419Z,97185.56
2023-05-02T19:17:02.279Z,97193.00
2023-05-02T19:19:05.076Z,97188.56
2023-05-02T19:21:13.470Z,97187.41
2023-05-02T19:23:20.154Z,97192.97
2023-05-02T19:25:24.963Z,97187.88
2023-05-02T19:27:27.668Z,97187.06
2023-05-02T19:29:30.500Z,97189.38
2023-05-02T19:31:34.316Z,97195.22
2023-05-02T19:33:37.492Z,97189.84
2023-05-02T19:35:40.457Z,97181.84
2023-05-02T19:37:43.936Z,97182.28
2023-05-02T19:39:46.705Z,97186.00
2023-05-02T19:41:50.990Z,97185.19
2023-05-02T19:43:55.622Z,97189.97
2023-05-02T19:45:58.696Z,97193.09
2023-05-02T19:48:01.604Z,97175.91
2023-05-02T19:50:04.710Z,97188.91
2023-05-02T19:52:08.198Z,97197.41
2023-05-02T19:54:11.766Z,97189.13
2023-05-02T19:56:14.558Z,97196.34
2023-05-02T19:58:18.794Z,97205.19
2023-05-02T20:00:22.168Z,97206.81
2023-05-02T20:02:25.415Z,97200.66
2023-05-02T20:04:28.284Z,97203.31
2023-05-02T20:06:32.083Z,97199.50
2023-05-02T20:08:34.999Z,97206.94
2023-05-02T20:10:38.048Z,97197.72
2023-05-02T20:12:44.646Z,97196.31
2023-05-02T20:14:48.767Z,97207.25
2023-05-02T20:16:51.660Z,97219.00
2023-05-02T20:18:54.719Z,97212.03
2023-05-02T20:20:57.727Z,97204.00
2023-05-02T20:23:00.468Z,97212.38
2023-05-02T20:25:03.792Z,97210.50
2023-05-02T20:27:06.649Z,97214.81
2023-05-02T20:29:10.574Z,97221.22
2023-05-02T20:31:14.834Z,97221.69
2023-05-02T20:33:18.360Z,97232.63
2023-05-02T20:35:21.349Z,97229.72
2023-05-02T20:37:25.530Z,97232.38
2023-05-02T20:39:28.265Z,97229.94
2023-05-02T20:41:32.314Z,97236.53
2023-05-02T20:43:36.113Z,97231.00
2023-05-02T20:45:39.982Z,97229.56
2023-05-02T20:47:44.191Z,97233.50
2023-05-02T20:49:47.622Z,97241.19
2023-05-02T20:51:51.517Z,97236.50
2023-05-02T20:53:54.470Z,97233.63
2023-05-02T20:55:57.263Z,97229.69
2023-05-02T20:57:59.978Z,97225.38
2023-05-02T21:00:04.427Z,97215.13
2023-05-02T21:02:08.316Z,97209.19
2023-05-02T21:04:14.188Z,97220.69
2023-05-02T21:06:21.143Z,97212.09
2023-05-02T21:08:27.922Z,97214.75
2023-05-02T21:10:34.000Z,97220.56
2023-05-02T21:12:40.059Z,97210.31
2023-05-02T21:14:45.952Z,97219.34
2023-05-02T21:16:52.016Z,97210.75
2023-05-02T21:18:58.005Z,97209.94
2023-05-02T21:21:04.971Z,97216.66
2023-05-02T21:23:11.920Z,97214.00
2023-05-02T21:25:17.902Z,97216.47
2023-05-02T21:27:24.067Z,97205.97
2023-05-02T21:29:28.137Z,97212.84
2023-05-02T21:31:34.082Z,97212.47
2023-05-02T21:33:38.131Z,97221.97
2023-05-02T21:35:42.026Z,97221.84
2023-05-02T21:37:47.131Z,97213.47
2023-05-02T21:39:51.090Z,97207.75
2023-05-02T21:41:55.202Z,97202.06
2023-05-02T21:43:59.059Z,97200.88
2023-05-02T21:46:03.184Z,97201.69
2023-05-02T21:48:07.092Z,97194.94
2023-05-02T21:50:11.277Z,97203.41
2023-05-02T21:52:15.106Z,97187.38
2023-05-02T21:54:21.196Z,97194.00
2023-05-02T21:56:25.025Z,97188.28
2023-05-02T21:58:30.222Z,97189.53
2023-05-02T22:00:34.094Z,97191.03
2023-05-02T22:02:38.276Z,97180.13
2023-05-02T22:04:49.154Z,97182.44
